createdAt,value
2022-10-30T00:00:14.102Z,15.57
2022-10-30T00:01:14.099Z,15.56
2022-10-30T00:02:14.143Z,15.54
2022-10-30T00:03:14.078Z,15.49
2022-10-30T00:04:14.024Z,15.48
2022-10-30T00:05:14.010Z,15.45
2022-10-30T00:06:14.071Z,15.43
2022-10-30T00:07:13.987Z,15.38
2022-10-30T00:08:13.971Z,15.35
2022-10-30T00:09:13.969Z,15.30
2022-10-30T00:10:13.951Z,15.27
2022-10-30T00:11:13.970Z,15.26
2022-10-30T00:12:13.930Z,15.21
2022-10-30T00:13:13.920Z,15.17
2022-10-30T00:14:13.909Z,15.13
2022-10-30T00:15:13.904Z,15.11
2022-10-30T00:16:13.883Z,15.06
2022-10-30T00:17:13.902Z,15.06
2022-10-30T00:18:13.861Z,15.05
2022-10-30T00:19:13.853Z,15.03
2022-10-30T00:20:13.845Z,15.01
2022-10-30T00:21:13.862Z,14.99
2022-10-30T00:22:13.826Z,14.94
2022-10-30T00:23:13.814Z,14.94
2022-10-30T00:24:13.802Z,14.91
2022-10-30T00:25:13.793Z,14.90
2022-10-30T00:26:13.802Z,14.88
2022-10-30T00:27:13.772Z,14.87
2022-10-30T00:28:13.766Z,14.86
2022-10-30T00:29:13.751Z,14.84
2022-10-30T00:30:13.736Z,14.83
2022-10-30T00:31:13.751Z,14.81
2022-10-30T00:32:13.706Z,14.80
2022-10-30T00:33:13.704Z,14.80
2022-10-30T00:34:13.685Z,14.75
2022-10-30T00:35:13.683Z,14.74
2022-10-30T00:36:13.694Z,14.72
2022-10-30T00:37:13.670Z,14.71
2022-10-30T00:38:13.653Z,14.71
2022-10-30T00:39:13.640Z,14.72
2022-10-30T00:40:13.625Z,14.72
2022-10-30T00:41:13.634Z,14.74
2022-10-30T00:42:13.604Z,14.75
2022-10-30T00:43:13.596Z,14.74
2022-10-30T00:44:13.578Z,14.74
2022-10-30T00:45:13.567Z,14.75
2022-10-30T00:46:13.557Z,14.75
2022-10-30T00:47:13.565Z,14.75
2022-10-30T00:48:13.538Z,14.78
2022-10-30T00:49:13.526Z,14.81
2022-10-30T00:50:13.554Z,14.81
2022-10-30T00:51:13.529Z,14.80
2022-10-30T00:52:13.499Z,14.80
2022-10-30T00:53:13.479Z,14.78
2022-10-30T00:54:13.474Z,14.78
2022-10-30T00:55:13.457Z,14.78
2022-10-30T00:56:13.450Z,14.78
2022-10-30T00:57:13.457Z,14.78
2022-10-30T00:58:13.430Z,14.74
2022-10-30T00:59:13.420Z,14.74
2022-10-30T01:00:13.402Z,14.72
2022-10-30T01:01:13.482Z,14.71
2022-10-30T01:02:13.530Z,14.69
2022-10-30T01:03:13.369Z,14.68
2022-10-30T01:04:13.360Z,14.65
2022-10-30T01:05:13.432Z,14.64
2022-10-30T01:06:13.341Z,14.60
2022-10-30T01:07:13.320Z,14.56
2022-10-30T01:08:13.386Z,14.54
2022-10-30T01:09:13.319Z,14.52
2022-10-30T01:10:13.291Z,14.50
2022-10-30T01:11:13.282Z,14.49
2022-10-30T01:12:13.301Z,14.47
2022-10-30T01:13:13.263Z,14.43
2022-10-30T01:14:13.260Z,14.43
2022-10-30T01:15:13.240Z,14.39
2022-10-30T01:16:13.233Z,14.38
2022-10-30T01:17:13.213Z,14.38
2022-10-30T01:18:13.239Z,14.35
2022-10-30T01:19:13.190Z,14.34
2022-10-30T01:20:13.190Z,14.34
2022-10-30T01:21:13.176Z,14.31
2022-10-30T01:22:13.164Z,14.27
2022-10-30T01:23:13.185Z,14.25
2022-10-30T01:24:13.142Z,14.24
2022-10-30T01:25:13.159Z,14.24
2022-10-30T01:26:13.124Z,14.24
2022-10-30T01:27:13.119Z,14.20
2022-10-30T01:28:13.124Z,14.19
2022-10-30T01:29:13.087Z,14.17
2022-10-30T01:30:13.214Z,14.17
2022-10-30T01:31:13.086Z,14.17
2022-10-30T01:32:13.055Z,14.16
2022-10-30T01:33:13.043Z,14.16
2022-10-30T01:34:13.053Z,14.14
2022-10-30T01:35:13.025Z,14.14
2022-10-30T01:36:13.012Z,14.13
2022-10-30T01:37:12.998Z,14.13
2022-10-30T01:38:12.994Z,14.13
2022-10-30T01:39:12.995Z,14.12
2022-10-30T01:40:12.967Z,14.12
2022-10-30T01:41:12.956Z,14.12
2022-10-30T01:42:12.947Z,14.13
2022-10-30T01:43:12.937Z,14.14
2022-10-30T01:44:12.947Z,14.16
2022-10-30T01:45:12.942Z,14.16
2022-10-30T01:46:12.927Z,14.16
2022-10-30T01:47:12.887Z,14.14
2022-10-30T01:48:12.884Z,14.14
2022-10-30T01:49:12.971Z,14.14
2022-10-30T01:50:12.859Z,14.16
2022-10-30T01:51:12.849Z,14.17
2022-10-30T01:52:12.856Z,14.19
2022-10-30T01:53:12.826Z,14.16
2022-10-30T01:54:12.808Z,14.17
2022-10-30T01:55:12.797Z,14.17
2022-10-30T01:56:12.799Z,14.17
2022-10-30T01:57:12.828Z,14.16
2022-10-30T01:58:12.769Z,14.17
2022-10-30T01:59:12.758Z,14.16
2022-10-30T02:00:12.749Z,14.16
2022-10-30T02:01:12.876Z,14.14
2022-10-30T02:02:12.771Z,14.13
2022-10-30T02:03:12.731Z,14.13
2022-10-30T02:04:12.709Z,14.12
2022-10-30T02:05:12.690Z,14.10
2022-10-30T02:06:12.680Z,14.12
2022-10-30T02:07:12.694Z,14.09
2022-10-30T02:08:12.659Z,14.10
2022-10-30T02:09:12.649Z,14.12
2022-10-30T02:10:12.639Z,14.13
2022-10-30T02:11:12.622Z,14.10
2022-10-30T02:12:12.640Z,14.12
2022-10-30T02:13:12.600Z,14.10
2022-10-30T02:14:12.600Z,14.10
2022-10-30T02:15:12.582Z,14.09
2022-10-30T02:16:12.573Z,14.09
2022-10-30T02:17:12.585Z,14.06
2022-10-30T02:18:12.552Z,14.06
2022-10-30T02:19:12.538Z,14.07
2022-10-30T02:20:12.523Z,14.09
2022-10-30T02:21:12.513Z,14.09
2022-10-30T02:22:12.587Z,14.10
2022-10-30T02:23:12.548Z,14.09
2022-10-30T02:24:12.493Z,14.12
2022-10-30T02:25:12.475Z,14.12
2022-10-30T02:26:12.462Z,14.09
2022-10-30T02:27:12.473Z,14.10
2022-10-30T02:28:12.443Z,14.09
2022-10-30T02:29:12.433Z,14.09
2022-10-30T02:30:12.422Z,14.09
2022-10-30T02:31:12.405Z,14.07
2022-10-30T02:32:12.422Z,14.06
2022-10-30T02:33:12.435Z,14.06
2022-10-30T02:34:12.395Z,14.01
2022-10-30T02:35:12.367Z,14.01
2022-10-30T02:36:12.353Z,14.01
2022-10-30T02:37:12.363Z,13.98
2022-10-30T02:38:12.342Z,13.98
2022-10-30T02:39:12.325Z,13.96
2022-10-30T02:40:12.324Z,13.94
2022-10-30T02:41:12.305Z,13.96
2022-10-30T02:42:12.315Z,13.96
2022-10-30T02:43:12.275Z,13.98
2022-10-30T02:44:12.266Z,13.99
2022-10-30T02:45:12.255Z,14.01
2022-10-30T02:46:12.245Z,14.02
2022-10-30T02:47:12.255Z,14.01
2022-10-30T02:48:12.230Z,14.02
2022-10-30T02:49:12.227Z,14.04
2022-10-30T02:50:12.228Z,14.06
2022-10-30T02:51:12.192Z,14.06
2022-10-30T02:52:12.207Z,14.06
2022-10-30T02:53:12.166Z,14.07
2022-10-30T02:54:12.156Z,14.07
2022-10-30T02:55:12.137Z,14.10
2022-10-30T02:56:12.138Z,14.07
2022-10-30T02:57:12.138Z,14.06
2022-10-30T02:58:12.109Z,14.04
2022-10-30T02:59:12.106Z,14.02
2022-10-30T03:00:12.087Z,14.02
2022-10-30T03:01:12.133Z,14.01
2022-10-30T03:02:12.112Z,14.01
2022-10-30T03:03:12.056Z,13.99
2022-10-30T03:04:12.076Z,13.98
2022-10-30T03:05:12.028Z,13.96
2022-10-30T03:06:12.029Z,13.94
2022-10-30T03:07:12.031Z,13.91
2022-10-30T03:08:12.008Z,13.91
2022-10-30T03:09:11.989Z,13.89
2022-10-30T03:10:11.981Z,13.88
2022-10-30T03:11:11.989Z,13.87
2022-10-30T03:12:11.961Z,13.87
2022-10-30T03:13:11.951Z,13.83
2022-10-30T03:14:11.937Z,13.81
2022-10-30T03:15:11.919Z,13.83
2022-10-30T03:16:11.918Z,13.83
2022-10-30T03:17:11.919Z,13.81
2022-10-30T03:18:11.892Z,13.83
2022-10-30T03:19:11.881Z,13.79
2022-10-30T03:20:11.875Z,13.79
2022-10-30T03:21:11.854Z,13.76
2022-10-30T03:22:11.879Z,13.73
2022-10-30T03:23:11.832Z,13.70
2022-10-30T03:24:11.829Z,13.69
2022-10-30T03:25:11.818Z,13.65
2022-10-30T03:26:11.801Z,13.62
2022-10-30T03:27:11.812Z,13.59
2022-10-30T03:28:11.780Z,13.58
2022-10-30T03:29:11.772Z,13.55
2022-10-30T03:30:11.766Z,13.54
2022-10-30T03:31:11.743Z,13.51
2022-10-30T03:32:11.797Z,13.49
2022-10-30T03:33:11.747Z,13.47
2022-10-30T03:34:11.721Z,13.43
2022-10-30T03:35:11.712Z,13.41
2022-10-30T03:36:11.694Z,13.41
2022-10-30T03:37:11.682Z,13.40
2022-10-30T03:38:11.704Z,13.37
2022-10-30T03:39:11.663Z,13.32
2022-10-30T03:40:11.655Z,13.30
2022-10-30T03:41:11.652Z,13.29
2022-10-30T03:42:11.624Z,13.29
2022-10-30T03:43:11.621Z,13.27
2022-10-30T03:44:11.632Z,13.24
2022-10-30T03:45:11.594Z,13.21
2022-10-30T03:46:11.590Z,13.20
2022-10-30T03:48:11.597Z,13.18
2022-10-30T03:49:11.546Z,13.17
2022-10-30T03:50:11.544Z,13.14
2022-10-30T03:51:11.527Z,13.14
2022-10-30T03:52:11.544Z,13.12
2022-10-30T03:53:11.505Z,13.11
2022-10-30T03:54:11.498Z,13.09
2022-10-30T03:55:11.506Z,13.11
2022-10-30T03:56:11.501Z,13.09
2022-10-30T03:57:11.470Z,13.12
2022-10-30T03:58:11.456Z,13.12
2022-10-30T03:59:11.439Z,13.12
2022-10-30T04:00:11.456Z,13.14
2022-10-30T04:01:11.463Z,13.12
2022-10-30T04:02:11.604Z,13.11
2022-10-30T04:03:11.399Z,13.11
2022-10-30T04:04:11.387Z,13.11
2022-10-30T04:05:11.399Z,13.11
2022-10-30T04:06:11.368Z,13.09
2022-10-30T04:07:11.356Z,13.12
2022-10-30T04:08:11.347Z,13.11
2022-10-30T04:09:11.339Z,13.12
2022-10-30T04:10:11.346Z,13.14
2022-10-30T04:11:11.406Z,13.14
2022-10-30T04:12:11.306Z,13.15
2022-10-30T04:13:11.288Z,13.17
2022-10-30T04:14:11.281Z,13.20
2022-10-30T04:15:11.298Z,13.24
2022-10-30T04:16:11.273Z,13.24
2022-10-30T04:18:11.251Z,13.21
2022-10-30T04:19:11.219Z,13.17
2022-10-30T04:20:11.218Z,13.14
2022-10-30T04:21:11.224Z,13.14
2022-10-30T04:22:11.190Z,13.11
2022-10-30T04:23:11.179Z,13.06
2022-10-30T04:24:11.178Z,13.04
2022-10-30T04:25:11.159Z,12.99
2022-10-30T04:26:11.174Z,12.97
2022-10-30T04:27:11.226Z,12.95
2022-10-30T04:28:11.129Z,12.92
2022-10-30T04:29:11.119Z,12.85
2022-10-30T04:30:11.102Z,12.85
2022-10-30T04:31:11.118Z,12.82
2022-10-30T04:32:11.086Z,12.79
2022-10-30T04:33:11.072Z,12.79
2022-10-30T04:34:11.063Z,12.78
2022-10-30T04:35:11.051Z,12.77
2022-10-30T04:36:11.065Z,12.74
2022-10-30T04:37:11.023Z,12.71
2022-10-30T04:38:11.021Z,12.70
2022-10-30T04:39:18.802Z,12.69
2022-10-30T04:40:11.013Z,12.67
2022-10-30T04:41:10.983Z,12.67
2022-10-30T04:42:11.002Z,12.64
2022-10-30T04:43:10.961Z,12.64
2022-10-30T04:44:10.953Z,12.64
2022-10-30T04:45:15.024Z,12.64
2022-10-30T04:46:10.961Z,12.63
2022-10-30T04:47:10.921Z,12.64
2022-10-30T04:48:10.919Z,12.64
2022-10-30T04:49:10.893Z,12.63
2022-10-30T04:50:10.892Z,12.62
2022-10-30T04:51:10.904Z,12.62
2022-10-30T04:52:10.884Z,12.60
2022-10-30T04:53:10.862Z,12.60
2022-10-30T04:54:10.880Z,12.56
2022-10-30T04:55:10.833Z,12.54
2022-10-30T04:56:10.822Z,12.49
2022-10-30T04:57:10.834Z,12.48
2022-10-30T04:58:10.816Z,12.44
2022-10-30T04:59:10.812Z,12.41
2022-10-30T05:00:10.777Z,12.37
2022-10-30T05:01:10.866Z,12.30
2022-10-30T05:02:11.061Z,12.26
2022-10-30T05:03:10.752Z,12.21
2022-10-30T05:04:10.745Z,12.20
2022-10-30T05:05:10.723Z,12.16
2022-10-30T05:06:10.722Z,12.15
2022-10-30T05:07:10.735Z,12.12
2022-10-30T05:08:10.705Z,12.11
2022-10-30T05:09:10.686Z,12.12
2022-10-30T05:10:10.675Z,12.12
2022-10-30T05:11:10.686Z,12.11
2022-10-30T05:12:10.653Z,12.13
2022-10-30T05:13:10.643Z,12.15
2022-10-30T05:14:10.649Z,12.13
2022-10-30T05:15:10.624Z,12.12
2022-10-30T05:16:10.606Z,12.13
2022-10-30T05:17:10.594Z,12.12
2022-10-30T05:18:10.609Z,12.12
2022-10-30T05:19:10.579Z,12.11
2022-10-30T05:20:13.465Z,12.12
2022-10-30T05:21:11.555Z,12.12
2022-10-30T05:22:10.547Z,12.11
2022-10-30T05:23:10.543Z,12.09
2022-10-30T05:24:10.548Z,12.05
2022-10-30T05:25:10.515Z,12.05
2022-10-30T05:26:10.524Z,12.05
2022-10-30T05:27:10.488Z,12.05
2022-10-30T05:28:10.489Z,12.05
2022-10-30T05:29:10.527Z,12.05
2022-10-30T05:30:10.449Z,12.05
2022-10-30T05:31:10.476Z,12.02
2022-10-30T05:32:10.490Z,12.02
2022-10-30T05:33:10.427Z,12.02
2022-10-30T05:34:10.410Z,12.01
2022-10-30T05:35:10.419Z,11.97
2022-10-30T05:36:10.414Z,11.99
2022-10-30T05:37:10.409Z,11.96
2022-10-30T05:38:10.371Z,11.96
2022-10-30T05:39:10.359Z,11.99
2022-10-30T05:40:10.380Z,11.97
2022-10-30T05:41:10.340Z,11.94
2022-10-30T05:42:13.697Z,11.90
2022-10-30T05:43:10.326Z,11.87
2022-10-30T05:44:10.299Z,11.85
2022-10-30T05:45:10.302Z,11.83
2022-10-30T05:46:10.299Z,11.80
2022-10-30T05:47:10.270Z,11.77
2022-10-30T05:48:10.258Z,11.77
2022-10-30T05:49:10.261Z,11.74
2022-10-30T05:50:10.256Z,11.72
2022-10-30T05:51:10.252Z,11.70
2022-10-30T05:52:10.211Z,11.67
2022-10-30T05:53:10.221Z,11.67
2022-10-30T05:54:10.202Z,11.68
2022-10-30T05:55:10.192Z,11.68
2022-10-30T05:56:10.189Z,11.68
2022-10-30T05:57:10.183Z,11.68
2022-10-30T05:58:10.151Z,11.65
2022-10-30T05:59:10.145Z,11.65
2022-10-30T06:00:10.129Z,11.67
2022-10-30T06:01:10.156Z,11.65
2022-10-30T06:02:10.150Z,11.65
2022-10-30T06:03:10.102Z,11.62
2022-10-30T06:04:10.080Z,11.61
2022-10-30T06:05:10.072Z,11.61
2022-10-30T06:06:10.061Z,11.61
2022-10-30T06:07:10.079Z,11.57
2022-10-30T06:08:10.042Z,11.56
2022-10-30T06:09:10.034Z,11.54
2022-10-30T06:10:10.031Z,11.53
2022-10-30T06:11:10.031Z,11.52
2022-10-30T06:12:09.995Z,11.50
2022-10-30T06:13:10.017Z,11.50
2022-10-30T06:14:09.976Z,11.49
2022-10-30T06:15:09.962Z,11.49
2022-10-30T06:16:09.975Z,11.49
2022-10-30T06:17:09.943Z,11.46
2022-10-30T06:18:09.955Z,11.46
2022-10-30T06:19:13.959Z,11.41
2022-10-30T06:20:10.904Z,11.41
2022-10-30T06:21:09.920Z,11.43
2022-10-30T06:22:09.885Z,11.46
2022-10-30T06:23:09.894Z,11.46
2022-10-30T06:24:09.865Z,11.46
2022-10-30T06:25:09.856Z,11.47
2022-10-30T06:26:09.863Z,11.46
2022-10-30T06:27:09.837Z,11.47
2022-10-30T06:28:09.821Z,11.47
2022-10-30T06:29:09.813Z,11.46
2022-10-30T06:30:09.804Z,11.47
2022-10-30T06:31:10.361Z,11.46
2022-10-30T06:32:09.775Z,11.46
2022-10-30T06:33:09.780Z,11.46
2022-10-30T06:34:09.754Z,11.44
2022-10-30T06:35:09.751Z,11.44
2022-10-30T06:36:09.755Z,11.46
2022-10-30T06:37:09.808Z,11.44
2022-10-30T06:38:09.706Z,11.46
2022-10-30T06:39:09.703Z,11.44
2022-10-30T06:40:09.693Z,11.44
2022-10-30T06:41:09.684Z,11.43
2022-10-30T06:42:09.693Z,11.41
2022-10-30T06:43:09.679Z,11.44
2022-10-30T06:44:09.645Z,11.46
2022-10-30T06:45:09.638Z,11.44
2022-10-30T06:46:09.648Z,11.46
2022-10-30T06:47:09.607Z,11.47
2022-10-30T06:48:09.604Z,11.47
2022-10-30T06:49:09.606Z,11.47
2022-10-30T06:50:09.574Z,11.46
2022-10-30T06:51:09.587Z,11.43
2022-10-30T06:52:09.576Z,11.44
2022-10-30T06:53:09.544Z,11.44
2022-10-30T06:54:09.536Z,11.47
2022-10-30T06:55:09.526Z,11.52
2022-10-30T06:56:09.531Z,11.52
2022-10-30T06:57:09.507Z,11.53
2022-10-30T06:58:09.488Z,11.53
2022-10-30T06:59:09.505Z,11.49
2022-10-30T07:00:09.467Z,11.50
2022-10-30T07:01:09.481Z,11.53
2022-10-30T07:02:11.335Z,11.53
2022-10-30T07:03:09.438Z,11.56
2022-10-30T07:04:09.446Z,11.57
2022-10-30T07:05:09.420Z,11.59
2022-10-30T07:06:09.417Z,11.62
2022-10-30T07:07:09.388Z,11.64
2022-10-30T07:08:09.377Z,11.67
2022-10-30T07:09:09.368Z,11.68
2022-10-30T07:10:09.395Z,11.67
2022-10-30T07:11:09.353Z,11.71
2022-10-30T07:12:09.364Z,11.71
2022-10-30T07:13:09.329Z,11.72
2022-10-30T07:14:09.310Z,11.74
2022-10-30T07:15:09.328Z,11.78
2022-10-30T07:16:09.300Z,11.82
2022-10-30T07:17:09.280Z,11.83
2022-10-30T07:18:09.270Z,11.86
2022-10-30T07:19:09.261Z,11.89
2022-10-30T07:20:09.271Z,11.90
2022-10-30T07:21:09.239Z,11.93
2022-10-30T07:22:09.248Z,11.97
2022-10-30T07:23:09.212Z,12.04
2022-10-30T07:24:09.210Z,12.08
2022-10-30T07:25:09.217Z,12.13
2022-10-30T07:26:09.180Z,12.20
2022-10-30T07:27:09.208Z,12.24
2022-10-30T07:28:09.170Z,12.29
2022-10-30T07:29:09.150Z,12.37
2022-10-30T07:30:09.141Z,12.41
2022-10-30T07:31:09.132Z,12.45
2022-10-30T07:32:09.145Z,12.52
2022-10-30T07:33:09.131Z,12.57
2022-10-30T07:34:09.091Z,12.62
2022-10-30T07:35:09.111Z,12.67
2022-10-30T07:36:09.103Z,12.75
2022-10-30T07:37:09.062Z,12.81
2022-10-30T07:38:09.049Z,12.87
2022-10-30T07:39:09.041Z,12.92
2022-10-30T07:40:12.761Z,12.97
2022-10-30T07:41:09.021Z,13.02
2022-10-30T07:42:09.004Z,13.06
2022-10-30T07:43:09.027Z,13.06
2022-10-30T07:44:09.015Z,13.07
2022-10-30T07:46:08.971Z,13.14
2022-10-30T07:47:08.961Z,13.18
2022-10-30T07:48:09.002Z,13.21
2022-10-30T07:49:08.933Z,13.25
2022-10-30T07:50:08.916Z,13.29
2022-10-30T07:51:08.932Z,13.33
2022-10-30T07:52:11.851Z,13.37
2022-10-30T07:53:09.896Z,13.40
2022-10-30T07:54:08.881Z,13.46
2022-10-30T07:55:08.873Z,13.49
2022-10-30T07:56:08.874Z,13.52
2022-10-30T07:57:08.844Z,13.58
2022-10-30T07:58:08.832Z,13.62
2022-10-30T07:59:08.837Z,13.67
2022-10-30T08:00:08.827Z,13.71
2022-10-30T08:01:08.863Z,13.76
2022-10-30T08:02:08.934Z,13.79
2022-10-30T08:03:08.784Z,13.83
2022-10-30T08:04:08.765Z,13.88
2022-10-30T08:05:08.756Z,13.94
2022-10-30T08:07:08.738Z,14.06
2022-10-30T08:08:08.725Z,14.13
2022-10-30T08:09:08.718Z,14.19
2022-10-30T08:10:08.704Z,14.24
2022-10-30T08:11:08.717Z,14.29
2022-10-30T08:12:08.706Z,14.35
2022-10-30T08:13:08.675Z,14.43
2022-10-30T08:14:08.659Z,14.47
2022-10-30T08:15:08.666Z,14.56
2022-10-30T08:16:08.661Z,14.61
2022-10-30T08:17:08.647Z,14.67
2022-10-30T08:18:08.617Z,14.74
2022-10-30T08:19:08.608Z,14.83
2022-10-30T08:20:08.588Z,14.90
2022-10-30T08:21:08.588Z,14.95
2022-10-30T08:22:08.599Z,15.03
2022-10-30T08:23:08.560Z,15.09
2022-10-30T08:24:08.588Z,15.17
2022-10-30T08:25:08.546Z,15.23
2022-10-30T08:26:08.558Z,15.35
2022-10-30T08:27:08.518Z,15.41
2022-10-30T08:28:08.505Z,15.48
2022-10-30T08:29:08.510Z,15.54
2022-10-30T08:30:08.482Z,15.61
2022-10-30T08:31:08.489Z,15.66
2022-10-30T08:32:08.489Z,15.74
2022-10-30T08:33:08.450Z,15.79
2022-10-30T08:34:08.457Z,15.86
2022-10-30T08:35:08.429Z,15.93
2022-10-30T08:36:08.420Z,16.00
2022-10-30T08:37:08.431Z,16.07
2022-10-30T08:38:08.401Z,16.14
2022-10-30T08:39:08.392Z,16.23
2022-10-30T08:40:08.390Z,16.31
2022-10-30T08:41:08.361Z,16.38
2022-10-30T08:42:08.383Z,16.45
2022-10-30T08:43:08.342Z,16.55
2022-10-30T08:44:08.330Z,16.62
2022-10-30T08:45:08.321Z,16.70
2022-10-30T08:46:08.303Z,16.80
2022-10-30T08:47:08.312Z,16.90
2022-10-30T08:48:08.304Z,17.00
2022-10-30T08:49:08.281Z,17.14
2022-10-30T08:50:08.336Z,17.29
2022-10-30T08:51:08.291Z,17.44
2022-10-30T08:52:08.263Z,17.55
2022-10-30T08:53:08.261Z,17.67
2022-10-30T08:54:08.222Z,17.79
2022-10-30T08:55:08.220Z,17.92
2022-10-30T08:56:08.203Z,18.09
2022-10-30T08:57:08.213Z,18.22
2022-10-30T08:58:08.187Z,18.39
2022-10-30T08:59:08.165Z,18.54
2022-10-30T09:00:08.154Z,18.64
2022-10-30T09:01:08.190Z,18.82
2022-10-30T09:02:08.275Z,18.95
2022-10-30T09:03:08.180Z,19.14
2022-10-30T09:04:08.158Z,19.32
2022-10-30T09:05:08.122Z,19.47
2022-10-30T09:06:08.097Z,19.58
2022-10-30T09:07:10.354Z,19.70
2022-10-30T09:08:08.077Z,19.83
2022-10-30T09:09:08.058Z,19.98
2022-10-30T09:10:08.045Z,20.15
2022-10-30T09:11:08.040Z,20.34
2022-10-30T09:12:08.047Z,20.51
2022-10-30T09:13:08.058Z,20.61
2022-10-30T09:14:08.052Z,20.68
2022-10-30T09:15:08.005Z,20.79
2022-10-30T09:16:08.033Z,20.90
2022-10-30T09:17:08.002Z,21.01
2022-10-30T09:18:08.005Z,21.21
2022-10-30T09:19:07.970Z,21.26
2022-10-30T09:20:08.119Z,21.29
2022-10-30T09:21:07.941Z,21.42
2022-10-30T09:22:07.973Z,21.26
2022-10-30T09:23:07.977Z,21.46
2022-10-30T09:24:07.937Z,21.69
2022-10-30T09:25:07.943Z,21.78
2022-10-30T09:26:07.921Z,21.98
2022-10-30T09:27:07.904Z,22.22
2022-10-30T09:28:07.915Z,22.39
2022-10-30T09:29:07.868Z,22.44
2022-10-30T09:30:07.874Z,22.49
2022-10-30T09:31:07.854Z,22.71
2022-10-30T09:32:07.835Z,22.62
2022-10-30T09:33:07.824Z,22.83
2022-10-30T09:34:07.828Z,22.90
2022-10-30T09:35:07.797Z,23.02
2022-10-30T09:36:07.764Z,23.23
2022-10-30T09:37:07.780Z,23.49
2022-10-30T09:38:07.804Z,23.76
2022-10-30T09:39:07.783Z,23.98
2022-10-30T09:40:07.757Z,24.24
2022-10-30T09:41:07.714Z,24.41
2022-10-30T09:42:07.723Z,24.59
2022-10-30T09:43:07.712Z,24.79
2022-10-30T09:44:07.701Z,24.97
2022-10-30T09:45:27.766Z,25.06
2022-10-30T09:46:08.696Z,25.13
2022-10-30T09:47:07.668Z,25.19
2022-10-30T09:48:07.690Z,25.28
2022-10-30T09:49:07.647Z,25.35
2022-10-30T09:50:07.666Z,25.37
2022-10-30T09:51:07.669Z,25.35
2022-10-30T09:52:07.631Z,25.46
2022-10-30T09:53:07.631Z,25.43
2022-10-30T09:54:07.578Z,25.59
2022-10-30T09:55:07.584Z,25.77
2022-10-30T09:56:07.623Z,25.82
2022-10-30T09:57:07.547Z,25.64
2022-10-30T09:58:07.565Z,25.68
2022-10-30T09:59:07.511Z,25.90
2022-10-30T10:00:07.519Z,25.87
2022-10-30T10:01:07.589Z,25.94
2022-10-30T10:02:07.564Z,26.06
2022-10-30T10:03:07.529Z,26.25
2022-10-30T10:04:07.508Z,26.40
2022-10-30T10:05:07.494Z,26.50
2022-10-30T10:06:07.493Z,26.36
2022-10-30T10:07:07.487Z,26.37
2022-10-30T10:08:07.516Z,26.43
2022-10-30T10:09:07.463Z,26.44
2022-10-30T10:10:07.445Z,26.46
2022-10-30T10:11:07.380Z,26.43
2022-10-30T10:12:07.373Z,26.49
2022-10-30T10:13:07.534Z,26.68
2022-10-30T10:14:07.370Z,26.81
2022-10-30T10:15:07.342Z,26.98
2022-10-30T10:16:07.334Z,27.10
2022-10-30T10:17:07.312Z,26.98
2022-10-30T10:18:07.314Z,26.74
2022-10-30T10:19:07.323Z,26.80
2022-10-30T10:20:07.293Z,26.96
2022-10-30T10:21:07.303Z,27.23
2022-10-30T10:22:07.274Z,27.47
2022-10-30T10:23:07.285Z,27.39
2022-10-30T10:24:07.263Z,27.64
2022-10-30T10:25:07.225Z,27.70
2022-10-30T10:26:07.222Z,27.64
2022-10-30T10:27:07.205Z,27.80
2022-10-30T10:28:07.196Z,27.96
2022-10-30T10:29:07.205Z,28.13
2022-10-30T10:30:07.178Z,28.25
2022-10-30T10:31:07.157Z,28.47
2022-10-30T10:32:07.166Z,28.63
2022-10-30T10:33:07.145Z,28.77
2022-10-30T10:34:07.166Z,28.80
2022-10-30T10:35:07.149Z,28.95
2022-10-30T10:36:07.115Z,28.97
2022-10-30T10:37:07.107Z,29.08
2022-10-30T10:38:07.090Z,29.26
2022-10-30T10:39:07.079Z,29.28
2022-10-30T10:40:07.091Z,29.25
2022-10-30T10:41:07.080Z,29.26
2022-10-30T10:42:07.050Z,29.38
2022-10-30T10:43:07.032Z,29.18
2022-10-30T10:44:07.030Z,28.91
2022-10-30T10:45:07.044Z,28.65
2022-10-30T10:46:07.007Z,28.51
2022-10-30T10:47:07.604Z,28.59
2022-10-30T10:48:06.999Z,28.63
2022-10-30T10:49:06.975Z,28.48
2022-10-30T10:50:06.985Z,28.32
2022-10-30T10:51:06.942Z,28.14
2022-10-30T10:52:06.942Z,28.07
2022-10-30T10:53:06.924Z,28.32
2022-10-30T10:54:06.915Z,28.50
2022-10-30T10:55:06.896Z,28.77
2022-10-30T10:56:06.916Z,28.95
2022-10-30T10:57:06.883Z,29.08
2022-10-30T10:58:06.873Z,29.04
2022-10-30T10:59:06.864Z,29.20
2022-10-30T11:00:06.856Z,29.29
2022-10-30T11:01:06.905Z,29.43
2022-10-30T11:02:07.021Z,29.45
2022-10-30T11:03:06.873Z,29.71
2022-10-30T11:04:06.807Z,29.45
2022-10-30T11:05:06.789Z,29.43
2022-10-30T11:06:06.810Z,29.47
2022-10-30T11:07:06.770Z,29.59
2022-10-30T11:08:06.767Z,29.55
2022-10-30T11:09:06.748Z,29.35
2022-10-30T11:10:06.748Z,29.10
2022-10-30T11:11:06.754Z,29.06
2022-10-30T11:12:06.728Z,29.29
2022-10-30T11:13:06.710Z,29.41
2022-10-30T11:14:06.715Z,29.45
2022-10-30T11:15:06.692Z,29.65
2022-10-30T11:16:06.680Z,29.81
2022-10-30T11:17:06.683Z,30.00
2022-10-30T11:19:06.664Z,30.27
2022-10-30T11:20:14.447Z,30.29
2022-10-30T11:21:06.624Z,30.33
2022-10-30T11:22:06.637Z,30.43
2022-10-30T11:23:06.606Z,30.59
2022-10-30T11:24:06.598Z,30.67
2022-10-30T11:25:06.587Z,30.75
2022-10-30T11:26:06.569Z,30.86
2022-10-30T11:27:06.587Z,30.90
2022-10-30T11:28:06.586Z,30.99
2022-10-30T11:29:06.546Z,30.94
2022-10-30T11:30:06.537Z,31.01
2022-10-30T11:31:06.520Z,30.99
2022-10-30T11:32:06.532Z,30.96
2022-10-30T11:33:06.502Z,31.02
2022-10-30T11:34:06.490Z,30.96
2022-10-30T11:35:06.500Z,30.86
2022-10-30T11:36:09.349Z,30.83
2022-10-30T11:37:07.462Z,30.80
2022-10-30T11:38:06.451Z,30.61
2022-10-30T11:39:06.432Z,30.69
2022-10-30T11:40:06.430Z,30.81
2022-10-30T11:41:06.434Z,30.94
2022-10-30T11:42:06.414Z,31.04
2022-10-30T11:43:06.397Z,31.11
2022-10-30T11:44:06.395Z,31.04
2022-10-30T11:45:06.393Z,31.02
2022-10-30T11:46:06.364Z,31.17
2022-10-30T11:47:06.372Z,31.20
2022-10-30T11:48:12.203Z,31.06
2022-10-30T11:49:07.332Z,30.81
2022-10-30T11:50:06.325Z,30.62
2022-10-30T11:51:06.389Z,30.74
2022-10-30T11:52:06.317Z,30.89
2022-10-30T11:53:06.287Z,31.02
2022-10-30T11:54:06.276Z,30.80
2022-10-30T11:55:06.287Z,30.87
2022-10-30T11:56:06.259Z,31.02
2022-10-30T11:57:06.267Z,31.20
2022-10-30T11:58:06.240Z,31.18
2022-10-30T11:59:06.221Z,31.23
2022-10-30T12:00:06.218Z,31.28
2022-10-30T12:01:06.209Z,31.28
2022-10-30T12:02:06.344Z,31.28
2022-10-30T12:03:06.204Z,31.36
2022-10-30T12:04:06.172Z,31.46
2022-10-30T12:05:06.167Z,31.55
2022-10-30T12:06:06.152Z,31.62
2022-10-30T12:07:06.142Z,31.53
2022-10-30T12:08:06.159Z,31.20
2022-10-30T12:09:06.135Z,31.35
2022-10-30T12:10:06.119Z,31.45
2022-10-30T12:11:06.094Z,31.49
2022-10-30T12:12:06.883Z,31.55
2022-10-30T12:13:06.104Z,31.58
2022-10-30T12:14:06.066Z,31.68
2022-10-30T12:15:06.055Z,31.60
2022-10-30T12:16:06.047Z,31.61
2022-10-30T12:17:06.035Z,31.54
2022-10-30T12:18:06.029Z,31.20
2022-10-30T12:19:06.036Z,31.24
2022-10-30T12:20:06.008Z,31.30
2022-10-30T12:21:05.990Z,31.02
2022-10-30T12:22:08.996Z,30.69
2022-10-30T12:23:06.000Z,30.80
2022-10-30T12:24:05.973Z,30.89
2022-10-30T12:25:05.949Z,30.81
2022-10-30T12:26:05.940Z,30.83
2022-10-30T12:27:05.929Z,30.69
2022-10-30T12:28:05.949Z,30.53
2022-10-30T12:29:05.909Z,30.38
2022-10-30T12:30:10.043Z,30.12
2022-10-30T12:31:05.889Z,29.94
2022-10-30T12:32:05.882Z,29.89
2022-10-30T12:33:05.893Z,29.62
2022-10-30T12:34:05.880Z,29.29
2022-10-30T12:35:05.857Z,29.35
2022-10-30T12:36:05.843Z,29.44
2022-10-30T12:37:05.822Z,29.45
2022-10-30T12:38:05.814Z,29.41
2022-10-30T12:39:05.825Z,29.34
2022-10-30T12:40:05.825Z,29.45
2022-10-30T12:41:05.787Z,29.57
2022-10-30T12:42:05.779Z,29.63
2022-10-30T12:43:05.766Z,29.72
2022-10-30T12:44:05.776Z,29.68
2022-10-30T12:45:05.746Z,29.77
2022-10-30T12:46:05.757Z,29.89
2022-10-30T12:47:05.719Z,29.96
2022-10-30T12:48:05.714Z,30.03
2022-10-30T12:49:05.699Z,30.11
2022-10-30T12:51:05.708Z,30.19
2022-10-30T12:52:05.672Z,30.27
2022-10-30T12:53:05.669Z,30.37
2022-10-30T12:54:05.652Z,30.36
2022-10-30T12:55:05.712Z,30.26
2022-10-30T12:56:05.650Z,30.19
2022-10-30T12:57:05.620Z,30.11
2022-10-30T12:58:05.611Z,29.99